createdAt,value
2023-04-15T00:02:20.313Z,99530.57
2023-04-15T00:04:54.211Z,99527.56
2023-04-15T00:07:27.541Z,99526.65
2023-04-15T00:10:01.214Z,99525.88
2023-04-15T00:12:35.014Z,99528.77
2023-04-15T00:15:10.481Z,99531.83
2023-04-15T00:17:44.712Z,99528.73
2023-04-15T00:20:18.189Z,99530.70
2023-04-15T00:22:51.656Z,99527.51
2023-04-15T00:25:25.709Z,99533.66
2023-04-15T00:27:59.249Z,99528.54
2023-04-15T00:30:33.098Z,99530.02
2023-04-15T00:33:07.049Z,99528.60
2023-04-15T00:35:40.897Z,99526.97
2023-04-15T00:38:15.352Z,99528.17
2023-04-15T00:40:49.902Z,99524.76
2023-04-15T00:43:23.856Z,99523.33
2023-04-15T00:45:58.532Z,99523.50
2023-04-15T00:48:32.664Z,99525.94
2023-04-15T00:51:06.190Z,99522.52
2023-04-15T00:53:39.619Z,99522.84
2023-04-15T00:56:13.615Z,99521.10
2023-04-15T00:58:47.021Z,99519.84
2023-04-15T01:01:22.987Z,99520.45
2023-04-15T01:03:57.294Z,99519.63
2023-04-15T01:06:31.351Z,99522.84
2023-04-15T01:09:05.420Z,99518.38
2023-04-15T01:11:39.346Z,99518.77
2023-04-15T01:14:15.360Z,99518.64
2023-04-15T01:16:49.553Z,99521.70
2023-04-15T01:19:23.594Z,99519.62
2023-04-15T01:21:57.980Z,99523.77
2023-04-15T01:24:32.063Z,99530.58
2023-04-15T01:27:06.144Z,99528.30
2023-04-15T01:29:42.020Z,99528.77
2023-04-15T01:32:16.079Z,99528.08
2023-04-15T01:34:51.104Z,99526.92
2023-04-15T01:37:24.892Z,99522.64
2023-04-15T01:39:58.998Z,99522.02
2023-04-15T01:42:33.224Z,99524.09
2023-04-15T01:45:08.590Z,99528.29
2023-04-15T01:47:45.099Z,99522.89
2023-04-15T01:50:19.360Z,99525.98
2023-04-15T01:52:53.650Z,99523.70
2023-04-15T01:55:27.434Z,99522.95
2023-04-15T01:58:01.601Z,99525.27
2023-04-15T02:00:35.807Z,99524.63
2023-04-15T02:03:09.420Z,99525.16
2023-04-15T02:05:43.202Z,99523.53
2023-04-15T02:08:17.603Z,99523.38
2023-04-15T02:10:51.230Z,99521.16
2023-04-15T02:13:24.809Z,99523.05
2023-04-15T02:15:59.698Z,99518.86
2023-04-15T02:18:33.366Z,99518.10
2023-04-15T02:21:07.691Z,99520.94
2023-04-15T02:23:44.311Z,99521.32
2023-04-15T02:26:22.724Z,99519.64
2023-04-15T02:28:56.928Z,99517.56
2023-04-15T02:31:30.367Z,99518.04
2023-04-15T02:34:05.449Z,99519.41
2023-04-15T02:36:40.806Z,99518.16
2023-04-15T02:39:17.077Z,99517.39
2023-04-15T02:41:52.798Z,99515.00
2023-04-15T02:44:27.672Z,99514.84
2023-04-15T02:47:05.443Z,99514.71
2023-04-15T02:49:40.636Z,99511.33
2023-04-15T02:52:17.273Z,99514.01
2023-04-15T02:54:51.154Z,99509.48
2023-04-15T02:57:24.704Z,99508.34
2023-04-15T02:59:58.576Z,99513.03
2023-04-15T03:02:37.391Z,99514.06
2023-04-15T03:05:15.377Z,99513.90
2023-04-15T03:07:56.265Z,99513.30
2023-04-15T03:10:30.388Z,99516.34
2023-04-15T03:13:03.612Z,99515.69
2023-04-15T03:15:38.112Z,99515.19
2023-04-15T03:18:12.416Z,99513.92
2023-04-15T03:20:47.159Z,99513.67
2023-04-15T03:23:21.171Z,99510.30
2023-04-15T03:25:56.313Z,99511.70
2023-04-15T03:28:31.110Z,99511.33
2023-04-15T03:31:05.446Z,99511.27
2023-04-15T03:33:38.907Z,99510.02
2023-04-15T03:36:23.750Z,99511.61
2023-04-15T03:38:58.240Z,99517.39
2023-04-15T03:41:31.744Z,99514.23
2023-04-15T03:44:05.349Z,99518.26
2023-04-15T03:46:48.209Z,99514.79
2023-04-15T03:49:23.297Z,99518.91
2023-04-15T03:51:57.863Z,99518.48
2023-04-15T03:54:32.019Z,99519.67
2023-04-15T03:57:05.521Z,99522.56
2023-04-15T03:59:39.214Z,99524.42
2023-04-15T04:02:12.836Z,99519.01
2023-04-15T04:04:46.997Z,99526.81
2023-04-15T04:07:21.637Z,99526.14
2023-04-15T04:09:55.044Z,99529.19
2023-04-15T04:12:29.286Z,99524.18
2023-04-15T04:15:02.877Z,99524.57
2023-04-15T04:17:37.167Z,99526.58
2023-04-15T04:20:12.753Z,99528.92
2023-04-15T04:22:46.274Z,99527.50
2023-04-15T04:25:19.477Z,99527.55
2023-04-15T04:27:53.240Z,99527.39
2023-04-15T04:30:26.662Z,99528.27
2023-04-15T04:33:00.368Z,99531.38
2023-04-15T04:35:35.332Z,99527.23
2023-04-15T04:38:09.138Z,99527.84
2023-04-15T04:40:43.033Z,99530.67
2023-04-15T04:43:16.955Z,99529.46
2023-04-15T04:45:50.662Z,99527.55
2023-04-15T04:48:24.587Z,99527.73
2023-04-15T04:50:58.093Z,99526.05
2023-04-15T04:53:31.580Z,99526.30
2023-04-15T04:56:05.871Z,99525.52
2023-04-15T04:58:39.852Z,99525.88
2023-04-15T05:01:13.457Z,99528.79
2023-04-15T05:03:47.228Z,99528.42
2023-04-15T05:06:20.945Z,99529.67
2023-04-15T05:08:54.725Z,99527.16
2023-04-15T05:11:28.686Z,99532.57
2023-04-15T05:14:02.717Z,99530.10
2023-04-15T05:16:36.548Z,99533.36
2023-04-15T05:19:09.967Z,99533.42
2023-04-15T05:21:44.307Z,99531.60
2023-04-15T05:24:18.621Z,99533.44
2023-04-15T05:26:52.667Z,99538.61
2023-04-15T05:29:26.339Z,99538.52
2023-04-15T05:32:00.145Z,99537.37
2023-04-15T05:34:34.158Z,99534.75
2023-04-15T05:37:08.272Z,99533.77
2023-04-15T05:39:42.635Z,99538.73
2023-04-15T05:42:16.285Z,99538.78
2023-04-15T05:44:50.053Z,99537.31
2023-04-15T05:47:24.182Z,99537.52
2023-04-15T05:49:59.516Z,99545.31
2023-04-15T05:52:33.257Z,99542.75
2023-04-15T05:55:07.553Z,99544.55
2023-04-15T05:57:41.007Z,99542.09
2023-04-15T06:00:16.953Z,99544.98
2023-04-15T06:02:51.002Z,99544.11
2023-04-15T06:05:24.984Z,99546.17
2023-04-15T06:07:58.750Z,99544.22
2023-04-15T06:10:37.199Z,99547.48
2023-04-15T06:13:09.558Z,99549.30
2023-04-15T06:15:43.504Z,99549.45
2023-04-15T06:18:17.122Z,99553.71
2023-04-15T06:20:51.354Z,99553.82
2023-04-15T06:23:26.411Z,99558.17
2023-04-15T06:26:01.447Z,99557.14
2023-04-15T06:28:35.516Z,99558.87
2023-04-15T06:31:09.221Z,99558.99
2023-04-15T06:33:42.918Z,99562.75
2023-04-15T06:36:17.042Z,99564.83
2023-04-15T06:38:50.870Z,99562.36
2023-04-15T06:41:24.559Z,99562.08
2023-04-15T06:43:58.376Z,99567.30
2023-04-15T06:46:31.960Z,99568.03
2023-04-15T06:49:08.561Z,99571.62
2023-04-15T06:51:42.481Z,99573.68
2023-04-15T06:54:16.135Z,99574.01
2023-04-15T06:56:50.570Z,99576.42
2023-04-15T06:59:24.532Z,99578.23
2023-04-15T07:01:57.910Z,99580.99
2023-04-15T07:04:31.858Z,99584.42
2023-04-15T07:07:06.405Z,99585.85
2023-04-15T07:09:40.402Z,99590.85
2023-04-15T07:12:14.258Z,99589.92
2023-04-15T07:14:48.074Z,99591.74
2023-04-15T07:17:21.894Z,99593.93
2023-04-15T07:19:55.454Z,99595.77
2023-04-15T07:22:29.041Z,99595.88
2023-04-15T07:25:02.455Z,99596.48
2023-04-15T07:27:35.953Z,99595.83
2023-04-15T07:30:12.912Z,99595.41
2023-04-15T07:32:47.054Z,99597.00
2023-04-15T07:35:21.798Z,99599.27
2023-04-15T07:37:55.470Z,99596.22
2023-04-15T07:40:28.949Z,99597.30
2023-04-15T07:43:02.500Z,99597.25
2023-04-15T07:45:36.742Z,99596.27
2023-04-15T07:48:11.295Z,99595.40
2023-04-15T07:50:45.145Z,99593.80
2023-04-15T07:53:18.933Z,99594.19
2023-04-15T07:55:53.142Z,99592.82
2023-04-15T07:58:30.210Z,99594.80
2023-04-15T08:01:03.876Z,99593.87
2023-04-15T08:03:37.712Z,99595.77
2023-04-15T08:06:11.600Z,99598.81
2023-04-15T08:08:45.552Z,99594.84
2023-04-15T08:11:19.030Z,99594.72
2023-04-15T08:13:53.911Z,99596.91
2023-04-15T08:16:29.042Z,99597.13
2023-04-15T08:19:02.781Z,99596.98
2023-04-15T08:21:36.454Z,99595.08
2023-04-15T08:24:11.739Z,99591.96
2023-04-15T08:26:45.273Z,99594.05
2023-04-15T08:29:19.198Z,99596.07
2023-04-15T08:31:54.278Z,99596.41
2023-04-15T08:34:27.940Z,99598.27
2023-04-15T08:37:01.664Z,99600.71
2023-04-15T08:39:35.276Z,99601.70
2023-04-15T08:42:13.892Z,99598.38
2023-04-15T08:44:46.328Z,99600.06
2023-04-15T08:47:28.724Z,99599.14
2023-04-15T08:50:05.382Z,99601.80
2023-04-15T08:52:39.211Z,99601.33
2023-04-15T08:55:15.692Z,99602.36
2023-04-15T08:57:49.740Z,99602.96
2023-04-15T09:00:23.872Z,99606.06
2023-04-15T09:02:58.419Z,99604.33
2023-04-15T09:05:35.800Z,99604.44
2023-04-15T09:08:09.549Z,99603.73
2023-04-15T09:10:43.522Z,99602.84
2023-04-15T09:13:17.405Z,99602.67
2023-04-15T09:15:51.212Z,99604.14
2023-04-15T09:18:34.203Z,99603.87
2023-04-15T09:21:12.648Z,99607.30
2023-04-15T09:24:00.549Z,99605.77
2023-04-15T09:26:40.583Z,99606.35
2023-04-15T09:29:15.041Z,99608.54
2023-04-15T09:31:48.851Z,99608.48
2023-04-15T09:34:23.057Z,99607.55
2023-04-15T09:37:00.382Z,99609.64
2023-04-15T09:39:51.363Z,99610.18
2023-04-15T09:42:27.101Z,99612.26
2023-04-15T09:45:12.678Z,99613.17
2023-04-15T09:47:46.746Z,99614.38
2023-04-15T09:50:20.930Z,99616.13
2023-04-15T09:52:54.397Z,99620.42
2023-04-15T09:55:28.532Z,99619.07
2023-04-15T09:58:01.959Z,99621.02
2023-04-15T10:00:36.625Z,99621.78
2023-04-15T10:03:10.667Z,99624.50
2023-04-15T10:05:44.994Z,99626.29
2023-04-15T10:08:20.292Z,99624.70
2023-04-15T10:10:57.428Z,99621.64
2023-04-15T10:13:36.408Z,99621.17
2023-04-15T10:16:16.704Z,99623.91
2023-04-15T10:18:56.669Z,99624.91
2023-04-15T10:21:32.590Z,99624.41
2023-04-15T10:24:08.942Z,99621.50
2023-04-15T10:26:42.983Z,99620.82
2023-04-15T10:29:16.673Z,99625.94
2023-04-15T10:31:51.394Z,99621.98
2023-04-15T10:34:27.126Z,99622.33
2023-04-15T10:37:07.139Z,99618.98
2023-04-15T10:39:45.771Z,99620.71
2023-04-15T10:42:20.938Z,99621.85
2023-04-15T10:44:58.704Z,99620.05
2023-04-15T10:47:34.145Z,99621.55
2023-04-15T10:50:09.608Z,99622.17
2023-04-15T10:52:46.312Z,99624.73
2023-04-15T10:55:24.342Z,99624.05
2023-04-15T10:58:01.275Z,99623.52
2023-04-15T11:00:40.478Z,99624.43
2023-04-15T11:03:14.749Z,99630.00
2023-04-15T11:05:58.472Z,99634.82
2023-04-15T11:08:59.428Z,99634.44
2023-04-15T11:12:10.045Z,99634.27
2023-04-15T11:14:45.121Z,99630.59
2023-04-15T11:17:31.431Z,99629.34
2023-04-15T11:20:06.579Z,99630.41
2023-04-15T11:22:40.697Z,99629.96
2023-04-15T11:25:26.448Z,99634.91
2023-04-15T11:28:01.932Z,99634.21
2023-04-15T11:30:37.750Z,99640.46
2023-04-15T11:33:14.202Z,99649.23
2023-04-15T11:35:47.689Z,99650.09
2023-04-15T11:38:21.289Z,99655.02
2023-04-15T11:40:55.150Z,99654.80
2023-04-15T11:43:28.988Z,99657.20
2023-04-15T11:46:05.067Z,99654.65
2023-04-15T11:48:44.120Z,99650.55
2023-04-15T11:51:18.050Z,99652.58
2023-04-15T11:53:52.907Z,99654.59
2023-04-15T11:56:27.920Z,99658.29
2023-04-15T11:59:02.524Z,99659.09
2023-04-15T12:01:43.878Z,99661.51
2023-04-15T12:04:21.667Z,99659.47
2023-04-15T12:07:06.270Z,99661.13
2023-04-15T12:09:43.096Z,99660.50
2023-04-15T12:12:17.240Z,99665.27
2023-04-15T12:14:53.918Z,99666.79
2023-04-15T12:17:28.447Z,99665.56
2023-04-15T12:20:02.572Z,99670.64
2023-04-15T12:22:40.981Z,99674.78
2023-04-15T12:25:15.279Z,99677.98
2023-04-15T12:27:56.512Z,99683.86
2023-04-15T12:30:30.231Z,99684.92
2023-04-15T12:33:05.472Z,99688.52
2023-04-15T12:35:39.160Z,99691.46
2023-04-15T12:38:12.680Z,99695.17
2023-04-15T12:40:48.681Z,99694.79
2023-04-15T12:43:22.349Z,99694.62
2023-04-15T12:45:55.874Z,99698.66
2023-04-15T12:48:29.711Z,99700.28
2023-04-15T12:51:05.626Z,99700.39
2023-04-15T12:53:39.877Z,99700.96
2023-04-15T12:56:13.691Z,99698.19
2023-04-15T12:58:47.814Z,99699.22
2023-04-15T13:01:24.775Z,99697.79
2023-04-15T13:03:59.273Z,99698.78
2023-04-15T13:06:34.268Z,99704.66
2023-04-15T13:09:07.886Z,99708.11
2023-04-15T13:11:41.867Z,99706.46
2023-04-15T13:14:16.173Z,99706.60
2023-04-15T13:16:49.897Z,99704.98
2023-04-15T13:19:23.614Z,99709.22
2023-04-15T13:21:57.651Z,99711.45
2023-04-15T13:24:31.272Z,99713.72
2023-04-15T13:27:05.696Z,99720.94
2023-04-15T13:29:40.660Z,99724.64
2023-04-15T13:32:14.679Z,99724.64
2023-04-15T13:34:48.469Z,99726.45
2023-04-15T13:37:22.443Z,99729.84
2023-04-15T13:39:57.138Z,99732.93
2023-04-15T13:42:30.957Z,99730.81
2023-04-15T13:45:04.725Z,99732.39
2023-04-15T13:47:38.294Z,99735.31
2023-04-15T13:50:13.322Z,99735.88
2023-04-15T13:52:47.116Z,99737.26
2023-04-15T13:55:23.065Z,99739.11
2023-04-15T13:57:58.995Z,99742.37
2023-04-15T14:00:33.617Z,99741.55
2023-04-15T14:03:07.903Z,99741.27
2023-04-15T14:05:42.029Z,99748.13
2023-04-15T14:08:16.993Z,99752.16
2023-04-15T14:10:51.193Z,99749.63
2023-04-15T14:13:25.042Z,99750.14
2023-04-15T14:15:59.061Z,99752.67
2023-04-15T14:18:32.907Z,99751.96
2023-04-15T14:21:07.172Z,99759.74
2023-04-15T14:23:41.068Z,99760.96
2023-04-15T14:26:15.380Z,99759.70
2023-04-15T14:28:49.260Z,99763.29
2023-04-15T14:31:24.534Z,99763.31
2023-04-15T14:33:59.243Z,99762.75
2023-04-15T14:36:33.859Z,99757.83
2023-04-15T14:39:08.337Z,99760.14
2023-04-15T14:41:42.610Z,99767.28
2023-04-15T14:44:16.371Z,99767.46
2023-04-15T14:46:50.981Z,99764.16
2023-04-15T14:49:25.383Z,99765.85
2023-04-15T14:51:59.153Z,99767.48
2023-04-15T14:54:34.982Z,99767.50
2023-04-15T14:57:09.502Z,99774.48
2023-04-15T14:59:43.799Z,99775.54
2023-04-15T15:02:36.656Z,99776.08
2023-04-15T15:05:14.061Z,99775.60
2023-04-15T15:07:48.601Z,99777.46
2023-04-15T15:10:38.413Z,99785.46
2023-04-15T15:13:19.973Z,99789.99
2023-04-15T15:15:55.186Z,99796.84
2023-04-15T15:18:29.136Z,99798.00
2023-04-15T15:21:03.739Z,99790.20
2023-04-15T15:23:38.210Z,99790.76
2023-04-15T15:26:12.259Z,99793.29
2023-04-15T15:28:47.140Z,99799.10
2023-04-15T15:31:21.330Z,99797.42
2023-04-15T15:33:55.885Z,99796.91
2023-04-15T15:36:29.636Z,99792.80
2023-04-15T15:39:04.950Z,99795.48
2023-04-15T15:41:39.164Z,99796.68
2023-04-15T15:44:13.672Z,99800.13
2023-04-15T15:46:47.719Z,99801.08
2023-04-15T15:49:21.973Z,99797.13
2023-04-15T15:51:56.030Z,99795.48
2023-04-15T15:54:29.615Z,99798.14
2023-04-15T15:57:03.549Z,99806.41
2023-04-15T15:59:41.734Z,99808.02
2023-04-15T16:02:16.187Z,99808.16
2023-04-15T16:04:50.700Z,99810.09
2023-04-15T16:07:24.472Z,99814.27
2023-04-15T16:09:58.898Z,99821.80
2023-04-15T16:12:34.833Z,99823.83
2023-04-15T16:15:11.662Z,99826.23
2023-04-15T16:17:46.682Z,99825.16
2023-04-15T16:20:20.658Z,99823.70
2023-04-15T16:22:55.060Z,99828.45
2023-04-15T16:25:28.739Z,99827.84
2023-04-15T16:28:14.760Z,99835.23
2023-04-15T16:30:58.001Z,99839.75
2023-04-15T16:33:33.438Z,99839.41
2023-04-15T16:36:08.618Z,99838.25
2023-04-15T16:38:42.794Z,99844.88
2023-04-15T16:41:18.119Z,99848.92
2023-04-15T16:43:52.717Z,99854.98
2023-04-15T16:46:27.039Z,99861.55
2023-04-15T16:49:01.295Z,99865.31
2023-04-15T16:51:35.690Z,99868.75
2023-04-15T16:54:10.856Z,99874.48
2023-04-15T16:56:45.299Z,99876.93
2023-04-15T16:59:19.297Z,99883.22
2023-04-15T17:01:58.454Z,99888.67
2023-04-15T17:04:35.999Z,99895.13
2023-04-15T17:07:10.977Z,99901.07
2023-04-15T17:09:44.561Z,99904.34
2023-04-15T17:12:19.549Z,99907.51
2023-04-15T17:14:53.575Z,99907.71
2023-04-15T17:17:28.135Z,99910.29
2023-04-15T17:20:01.931Z,99914.00
2023-04-15T17:22:36.437Z,99912.89
2023-04-15T17:25:12.071Z,99907.94
2023-04-15T17:27:46.954Z,99906.92
2023-04-15T17:30:21.146Z,99916.13
2023-04-15T17:32:56.450Z,99915.48
2023-04-15T17:35:33.110Z,99922.27
2023-04-15T17:38:07.909Z,99921.59
2023-04-15T17:40:44.546Z,99921.64
2023-04-15T17:43:21.993Z,99926.52
2023-04-15T17:45:58.724Z,99933.78
2023-04-15T17:48:35.062Z,99939.22
2023-04-15T17:51:13.769Z,99941.89
2023-04-15T17:53:52.784Z,99952.47
2023-04-15T17:56:31.593Z,99962.21
2023-04-15T17:59:07.346Z,99972.97
2023-04-15T18:01:42.966Z,99976.56
2023-04-15T18:04:18.387Z,99979.66
2023-04-15T18:06:53.554Z,99983.67
2023-04-15T18:09:30.589Z,99981.19
2023-04-15T18:12:08.458Z,99978.39
2023-04-15T18:14:44.644Z,99985.41
2023-04-15T18:17:43.315Z,99998.44
2023-04-15T18:20:20.227Z,100000.51
2023-04-15T18:22:59.796Z,100003.45
2023-04-15T18:25:35.776Z,100006.44
2023-04-15T18:28:11.326Z,100010.30
2023-04-15T18:30:45.848Z,100013.13
2023-04-15T18:33:24.384Z,100015.67
2023-04-15T18:36:05.801Z,100021.33
2023-04-15T18:38:41.835Z,100029.27
2023-04-15T18:41:18.583Z,100028.05
2023-04-15T18:43:54.188Z,100032.84
2023-04-15T18:46:30.166Z,100029.94
2023-04-15T18:49:08.921Z,100027.14
2023-04-15T18:51:45.871Z,100030.39
2023-04-15T18:54:24.366Z,100029.94
2023-04-15T18:57:00.253Z,100033.97
2023-04-15T18:59:45.542Z,100031.87
2023-04-15T19:02:22.212Z,100029.22
2023-04-15T19:05:00.352Z,100022.52
2023-04-15T19:07:35.429Z,100025.06
2023-04-15T19:10:11.524Z,100035.27
2023-04-15T19:12:46.820Z,100038.36
2023-04-15T19:15:22.401Z,100043.14
2023-04-15T19:18:00.766Z,100052.12
2023-04-15T19:20:37.785Z,100055.58
2023-04-15T19:23:16.288Z,100059.67
2023-04-15T19:25:52.630Z,100061.48
2023-04-15T19:28:29.427Z,100064.76
2023-04-15T19:31:08.826Z,100066.50
2023-04-15T19:33:45.936Z,100067.85
2023-04-15T19:36:33.606Z,100068.55
2023-04-15T19:39:09.872Z,100075.16
2023-04-15T19:41:44.584Z,100078.40
2023-04-15T19:44:19.704Z,100078.16
2023-04-15T19:46:57.155Z,100078.20
2023-04-15T19:49:35.879Z,100084.46
2023-04-15T19:52:11.682Z,100088.36
2023-04-15T19:54:49.765Z,100086.44
2023-04-15T19:57:24.956Z,100084.34
2023-04-15T20:00:08.785Z,100088.71
2023-04-15T20:02:44.386Z,100100.52
2023-04-15T20:05:21.177Z,100102.47
2023-04-15T20:07:58.053Z,100098.35
2023-04-15T20:10:40.638Z,100100.31
2023-04-15T20:13:15.986Z,100101.48
2023-04-15T20:15:51.553Z,100105.04
2023-04-15T20:18:26.204Z,100105.92
2023-04-15T20:21:02.380Z,100108.45
2023-04-15T20:23:38.910Z,100111.11
2023-04-15T20:26:16.128Z,100113.82
2023-04-15T20:28:52.433Z,100109.76
2023-04-15T20:31:31.405Z,100106.75
2023-04-15T20:34:03.836Z,100110.33
2023-04-15T20:36:44.469Z,100107.14
2023-04-15T20:39:21.925Z,100109.36
2023-04-15T20:41:58.357Z,100104.28
2023-04-15T20:44:36.989Z,100106.46
2023-04-15T20:47:12.015Z,100102.33
2023-04-15T20:49:49.446Z,100100.05
2023-04-15T20:52:23.553Z,100102.27
2023-04-15T20:54:57.967Z,100102.11
2023-04-15T20:57:32.417Z,100107.81
2023-04-15T21:00:11.356Z,100109.31
2023-04-15T21:02:46.872Z,100108.93
2023-04-15T21:05:21.968Z,100110.15
2023-04-15T21:07:56.848Z,100110.30
2023-04-15T21:10:35.721Z,100110.47
2023-04-15T21:13:10.095Z,100112.53
2023-04-15T21:15:44.514Z,100114.27
2023-04-15T21:18:19.705Z,100115.09
2023-04-15T21:21:01.668Z,100117.50
2023-04-15T21:23:36.796Z,100117.00
2023-04-15T21:26:11.496Z,100116.05
2023-04-15T21:28:45.103Z,100116.39
2023-04-15T21:31:19.601Z,100119.59
2023-04-15T21:33:53.086Z,100119.66
2023-04-15T21:36:29.499Z,100121.09
2023-04-15T21:39:03.768Z,100126.67
2023-04-15T21:41:38.395Z,100125.64
2023-04-15T21:44:13.239Z,100126.02
2023-04-15T21:46:48.201Z,100123.83
2023-04-15T21:49:23.660Z,100125.90
2023-04-15T21:52:01.594Z,100129.30
2023-04-15T21:54:38.572Z,100133.71
2023-04-15T21:57:12.342Z,100136.08
2023-04-15T21:59:45.821Z,100136.05
2023-04-15T22:02:19.708Z,100136.97
2023-04-15T22:04:53.374Z,100141.42
2023-04-15T22:07:27.265Z,100147.65
2023-04-15T22:10:01.103Z,100151.10
2023-04-15T22:12:34.681Z,100155.28
2023-04-15T22:15:10.150Z,100159.80
2023-04-15T22:17:43.777Z,100159.11
2023-04-15T22:20:17.550Z,100162.29
2023-04-15T22:22:54.151Z,100164.47
2023-04-15T22:25:28.462Z,100165.13
2023-04-15T22:28:02.135Z,100166.35
2023-04-15T22:30:38.551Z,100170.73
2023-04-15T22:33:12.860Z,100173.92
2023-04-15T22:35:46.258Z,100173.20
2023-04-15T22:38:20.374Z,100177.95
2023-04-15T22:40:54.328Z,100179.25
2023-04-15T22:43:28.857Z,100177.59
2023-04-15T22:46:03.589Z,100178.69
2023-04-15T22:48:37.447Z,100184.59
2023-04-15T22:51:11.691Z,100185.07
2023-04-15T22:53:45.665Z,100181.52
2023-04-15T22:56:22.134Z,100182.70
2023-04-15T22:58:55.853Z,100184.61
2023-04-15T23:01:29.830Z,100189.31
2023-04-15T23:04:05.908Z,100187.19
2023-04-15T23:06:57.173Z,100189.56
2023-04-15T23:09:30.971Z,100188.34
2023-04-15T23:12:04.614Z,100188.40
2023-04-15T23:14:38.024Z,100191.23
2023-04-15T23:17:11.668Z,100189.66
2023-04-15T23:19:45.293Z,100192.15
2023-04-15T23:22:19.921Z,100190.89
2023-04-15T23:24:53.479Z,100191.24
2023-04-15T23:27:27.673Z,100190.08
2023-04-15T23:30:01.705Z,100192.13
2023-04-15T23:32:35.781Z,100192.91
2023-04-15T23:35:10.618Z,100192.30
2023-04-15T23:37:44.568Z,100194.80
2023-04-15T23:40:18.843Z,100193.73
2023-04-15T23:42:53.309Z,100191.64
2023-04-15T23:45:27.356Z,100194.13
2023-04-15T23:48:01.593Z,100194.35
2023-04-15T23:50:35.242Z,100191.79
2023-04-15T23:53:09.310Z,100193.16
2023-04-15T23:55:42.903Z,100189.79
2023-04-15T23:58:16.981Z,100194.31
